createdAt,value
2018-11-02T00:01:20.929Z,26.93
2018-11-02T00:03:51.073Z,31.73
2018-11-02T00:06:20.645Z,30.37
2018-11-02T00:09:05.941Z,29.13
2018-11-02T00:11:35.523Z,33.00
2018-11-02T00:14:05.190Z,33.10
2018-11-02T00:16:34.776Z,30.93
2018-11-02T00:19:04.654Z,30.83
2018-11-02T00:21:34.265Z,31.33
2018-11-02T00:24:04.213Z,33.27
2018-11-02T00:26:33.961Z,36.73
2018-11-02T00:29:04.046Z,32.27
2018-11-02T00:31:33.740Z,35.07
2018-11-02T00:34:03.556Z,34.33
2018-11-02T00:36:33.012Z,31.93
2018-11-02T00:39:02.842Z,32.80
2018-11-02T00:41:32.751Z,32.43
2018-11-02T00:44:02.454Z,36.60
2018-11-02T00:46:32.174Z,34.57
2018-11-02T00:49:02.103Z,37.07
2018-11-02T00:51:31.722Z,38.93
2018-11-02T00:54:01.430Z,33.87
2018-11-02T00:56:31.142Z,36.17
2018-11-02T00:59:00.847Z,34.10
2018-11-02T01:01:30.690Z,34.03
2018-11-02T01:04:00.398Z,34.43
2018-11-02T01:06:30.212Z,35.97
2018-11-02T01:08:59.958Z,34.33
2018-11-02T01:11:29.850Z,38.70
2018-11-02T01:13:59.738Z,39.83
2018-11-02T01:16:29.629Z,38.53
2018-11-02T01:18:59.304Z,40.60
2018-11-02T01:21:29.045Z,36.17
2018-11-02T01:23:58.711Z,35.13
2018-11-02T01:26:29.489Z,39.30
2018-11-02T01:28:59.911Z,41.43
2018-11-02T01:31:30.109Z,39.27
2018-11-02T01:33:59.973Z,41.73
2018-11-02T01:36:29.860Z,45.33
2018-11-02T01:38:59.706Z,41.07
2018-11-02T01:41:29.757Z,39.97
2018-11-02T01:43:59.387Z,44.87
2018-11-02T01:46:29.545Z,40.20
2018-11-02T01:48:59.213Z,42.40
2018-11-02T01:51:28.725Z,41.37
2018-11-02T01:53:59.221Z,42.27
2018-11-02T01:56:29.225Z,41.67
2018-11-02T01:58:58.881Z,50.53
2018-11-02T02:01:28.654Z,49.30
2018-11-02T02:03:58.345Z,46.47
2018-11-02T02:06:27.994Z,52.20
2018-11-02T02:08:57.594Z,47.33
2018-11-02T02:11:27.377Z,50.77
2018-11-02T02:13:57.133Z,53.43
2018-11-02T02:16:26.946Z,45.27
2018-11-02T02:18:56.644Z,47.60
2018-11-02T02:21:26.201Z,47.43
2018-11-02T02:23:55.832Z,49.23
2018-11-02T02:26:25.753Z,45.43
2018-11-02T02:28:55.398Z,48.00
2018-11-02T02:31:25.039Z,46.63
2018-11-02T02:33:54.499Z,50.23
2018-11-02T02:36:24.235Z,50.83
2018-11-02T02:38:53.929Z,49.93
2018-11-02T02:41:23.741Z,47.97
2018-11-02T02:43:53.297Z,52.97
2018-11-02T02:46:23.269Z,55.70
2018-11-02T02:48:52.725Z,51.83
2018-11-02T02:51:22.453Z,52.07
2018-11-02T02:53:51.942Z,52.27
2018-11-02T02:56:22.220Z,53.67
2018-11-02T02:58:51.855Z,50.90
2018-11-02T03:01:21.513Z,52.83
2018-11-02T03:03:51.605Z,48.70
2018-11-02T03:06:21.305Z,41.87
2018-11-02T03:08:51.124Z,44.23
2018-11-02T03:11:20.756Z,45.77
2018-11-02T03:13:50.522Z,49.73
2018-11-02T03:16:20.695Z,48.50
2018-11-02T03:18:50.368Z,47.77
2018-11-02T03:21:19.989Z,43.57
2018-11-02T03:23:49.663Z,44.43
2018-11-02T03:26:19.453Z,44.60
2018-11-02T03:28:49.085Z,46.30
2018-11-02T03:31:18.760Z,45.73
2018-11-02T03:33:48.469Z,46.77
2018-11-02T03:36:18.185Z,46.83
2018-11-02T03:38:47.652Z,48.13
2018-11-02T03:41:17.674Z,46.43
2018-11-02T03:43:47.326Z,47.90
2018-11-02T03:46:17.229Z,39.37
2018-11-02T03:48:46.740Z,40.60
2018-11-02T03:51:16.609Z,39.83
2018-11-02T03:53:46.825Z,39.40
2018-11-02T03:56:16.557Z,39.50
2018-11-02T03:58:46.199Z,38.87
2018-11-02T04:01:16.094Z,42.63
2018-11-02T04:03:45.728Z,41.50
2018-11-02T04:06:15.417Z,41.70
2018-11-02T04:08:45.274Z,43.57
2018-11-02T04:11:14.868Z,43.37
2018-11-02T04:13:44.490Z,37.83
2018-11-02T04:16:14.377Z,43.10
2018-11-02T04:18:43.829Z,39.80
2018-11-02T04:21:13.905Z,42.30
2018-11-02T04:23:43.508Z,41.43
2018-11-02T04:26:12.966Z,40.77
2018-11-02T04:28:43.045Z,40.40
2018-11-02T04:31:12.613Z,44.93
2018-11-02T04:33:42.260Z,46.87
2018-11-02T04:36:12.001Z,44.37
2018-11-02T04:38:41.691Z,42.33
2018-11-02T04:41:11.408Z,49.07
2018-11-02T04:43:41.499Z,41.43
2018-11-02T04:46:11.104Z,42.40
2018-11-02T04:48:41.497Z,44.37
2018-11-02T04:51:11.968Z,46.83
2018-11-02T04:53:41.883Z,47.20
2018-11-02T04:56:11.338Z,43.93
2018-11-02T04:58:41.508Z,47.33
2018-11-02T05:01:11.326Z,47.73
2018-11-02T05:03:40.808Z,43.40
2018-11-02T05:06:10.456Z,43.70
2018-11-02T05:08:40.129Z,47.67
2018-11-02T05:11:09.793Z,43.53
2018-11-02T05:13:39.567Z,44.57
2018-11-02T05:16:09.293Z,45.13
2018-11-02T05:18:39.368Z,49.97
2018-11-02T05:21:09.473Z,46.20
2018-11-02T05:23:39.217Z,48.40
2018-11-02T05:26:08.977Z,44.27
2018-11-02T05:28:38.762Z,41.23
2018-11-02T05:31:08.343Z,42.80
2018-11-02T05:33:37.990Z,46.43
2018-11-02T05:36:07.682Z,40.57
2018-11-02T05:38:37.469Z,43.50
2018-11-02T05:41:07.107Z,43.37
2018-11-02T05:43:36.853Z,44.33
2018-11-02T05:46:06.605Z,40.53
2018-11-02T05:48:36.318Z,42.03
2018-11-02T05:51:05.922Z,43.10
2018-11-02T05:53:35.724Z,45.33
2018-11-02T05:56:05.469Z,46.73
2018-11-02T05:58:35.053Z,40.53
2018-11-02T06:01:05.605Z,39.37
2018-11-02T06:03:35.276Z,41.60
2018-11-02T06:06:05.272Z,41.40
2018-11-02T06:08:35.029Z,43.67
2018-11-02T06:11:04.909Z,41.97
2018-11-02T06:13:34.632Z,42.93
2018-11-02T06:16:04.441Z,43.57
2018-11-02T06:18:34.281Z,43.10
2018-11-02T06:21:04.466Z,45.77
2018-11-02T06:23:34.203Z,46.07
2018-11-02T06:26:05.225Z,42.60
2018-11-02T06:28:35.151Z,40.50
2018-11-02T06:31:05.365Z,45.57
2018-11-02T06:33:35.164Z,39.73
2018-11-02T06:36:04.978Z,40.10
2018-11-02T06:38:34.741Z,40.30
2018-11-02T06:41:04.667Z,38.67
2018-11-02T06:43:34.771Z,39.77
2018-11-02T06:46:04.569Z,38.87
2018-11-02T06:48:34.661Z,36.97
2018-11-02T06:51:04.516Z,39.73
2018-11-02T06:53:34.314Z,37.53
2018-11-02T06:56:04.033Z,34.10
2018-11-02T06:58:33.664Z,39.33
2018-11-02T07:01:03.194Z,36.50
2018-11-02T07:03:32.949Z,37.07
2018-11-02T07:06:02.526Z,38.10
2018-11-02T07:08:32.570Z,37.33
2018-11-02T07:11:02.390Z,40.27
2018-11-02T07:13:32.279Z,37.63
2018-11-02T07:16:02.117Z,39.40
2018-11-02T07:18:32.110Z,35.27
2018-11-02T07:21:02.223Z,40.03
2018-11-02T07:23:32.165Z,36.67
2018-11-02T07:26:01.753Z,32.93
2018-11-02T07:28:31.496Z,39.67
2018-11-02T07:31:01.197Z,37.57
2018-11-02T07:33:31.015Z,38.70
2018-11-02T07:36:00.754Z,36.63
2018-11-02T07:38:30.317Z,37.13
2018-11-02T07:41:00.153Z,38.23
2018-11-02T07:43:29.870Z,34.27
2018-11-02T07:45:59.629Z,34.00
2018-11-02T07:48:29.164Z,40.13
2018-11-02T07:50:58.865Z,37.27
2018-11-02T07:53:28.713Z,40.87
2018-11-02T07:55:58.697Z,39.00
2018-11-02T07:58:28.541Z,36.33
2018-11-02T08:00:58.089Z,36.73
2018-11-02T08:03:27.697Z,39.07
2018-11-02T08:05:58.582Z,34.33
2018-11-02T08:08:28.158Z,33.33
2018-11-02T08:10:57.854Z,28.03
2018-11-02T08:13:28.026Z,34.20
2018-11-02T08:15:57.629Z,32.73
2018-11-02T08:18:27.274Z,30.40
2018-11-02T08:20:56.940Z,30.33
2018-11-02T08:23:26.813Z,32.67
2018-11-02T08:25:56.301Z,29.20
2018-11-02T08:28:25.983Z,33.53
2018-11-02T08:30:55.871Z,34.33
2018-11-02T08:33:25.913Z,32.50
2018-11-02T08:35:55.429Z,33.57
2018-11-02T08:38:24.970Z,27.10
2018-11-02T08:40:54.740Z,33.80
2018-11-02T08:43:24.610Z,32.37
2018-11-02T08:45:54.430Z,32.77
2018-11-02T08:48:24.185Z,34.57
2018-11-02T08:50:54.301Z,34.77
2018-11-02T08:53:23.969Z,32.57
2018-11-02T08:55:53.466Z,37.17
2018-11-02T08:58:23.266Z,35.50
2018-11-02T09:00:52.638Z,34.60
2018-11-02T09:03:22.423Z,32.33
2018-11-02T09:05:52.229Z,36.53
2018-11-02T09:08:21.934Z,32.80
2018-11-02T09:10:51.863Z,31.60
2018-11-02T09:13:21.766Z,32.53
2018-11-02T09:15:51.590Z,33.50
2018-11-02T09:18:21.502Z,29.67
2018-11-02T09:20:51.185Z,34.60
2018-11-02T09:23:20.813Z,34.27
2018-11-02T09:25:50.430Z,34.43
2018-11-02T09:28:20.245Z,32.67
2018-11-02T09:30:49.941Z,32.60
2018-11-02T09:33:19.504Z,36.40
2018-11-02T09:35:49.405Z,35.07
2018-11-02T09:38:18.971Z,37.47
2018-11-02T09:40:48.573Z,35.90
2018-11-02T09:43:18.248Z,40.60
2018-11-02T09:45:47.877Z,34.33
2018-11-02T09:48:17.421Z,32.67
2018-11-02T09:50:47.418Z,35.70
2018-11-02T09:53:17.006Z,34.57
2018-11-02T09:55:46.541Z,34.93
2018-11-02T09:58:16.262Z,37.67
2018-11-02T10:00:45.824Z,36.37
2018-11-02T10:03:15.749Z,38.97
2018-11-02T10:05:45.377Z,40.70
2018-11-02T10:08:20.515Z,39.83
2018-11-02T10:10:50.365Z,37.57
2018-11-02T10:13:20.092Z,42.27
2018-11-02T10:15:49.947Z,38.97
2018-11-02T10:18:19.721Z,37.67
2018-11-02T10:20:49.464Z,37.23
2018-11-02T10:23:19.119Z,39.70
2018-11-02T10:25:49.279Z,36.90
2018-11-02T10:28:19.009Z,39.47
2018-11-02T10:30:48.789Z,39.63
2018-11-02T10:33:18.760Z,38.70
2018-11-02T10:35:49.064Z,37.80
2018-11-02T10:38:18.901Z,37.03
2018-11-02T10:40:51.748Z,36.50
2018-11-02T10:43:22.377Z,41.13
2018-11-02T10:45:56.375Z,40.80
2018-11-02T10:48:27.639Z,41.80
2018-11-02T10:50:57.297Z,41.03
2018-11-02T10:53:27.057Z,43.10
2018-11-02T10:55:57.125Z,35.37
2018-11-02T10:58:26.973Z,39.90
2018-11-02T11:01:02.218Z,42.87
2018-11-02T11:03:31.750Z,39.30
2018-11-02T11:06:01.474Z,36.90
2018-11-02T11:08:31.303Z,39.47
2018-11-02T11:11:01.002Z,35.30
2018-11-02T11:13:31.040Z,44.03
2018-11-02T11:16:00.541Z,38.40
2018-11-02T11:18:30.318Z,35.80
2018-11-02T11:20:59.947Z,37.27
2018-11-02T11:23:29.793Z,41.03
2018-11-02T11:25:59.484Z,40.03
2018-11-02T11:28:29.241Z,44.23
2018-11-02T11:30:59.195Z,38.50
2018-11-02T11:33:29.061Z,38.37
2018-11-02T11:35:58.925Z,41.30
2018-11-02T11:38:28.461Z,40.03
2018-11-02T11:40:58.145Z,42.10
2018-11-02T11:43:27.885Z,39.87
2018-11-02T11:45:57.987Z,37.77
2018-11-02T11:48:27.920Z,39.27
2018-11-02T11:50:57.774Z,43.37
2018-11-02T11:53:27.882Z,38.50
2018-11-02T11:55:57.634Z,38.23
2018-11-02T11:58:27.819Z,34.87
2018-11-02T12:00:57.403Z,40.17
2018-11-02T12:03:26.974Z,35.00
2018-11-02T12:05:56.694Z,36.93
2018-11-02T12:08:26.478Z,40.23
2018-11-02T12:10:56.197Z,40.50
2018-11-02T12:13:26.068Z,39.67
2018-11-02T12:15:55.753Z,34.93
2018-11-02T12:18:25.262Z,38.27
2018-11-02T12:20:54.921Z,37.97
2018-11-02T12:23:24.629Z,36.83
2018-11-02T12:25:54.612Z,39.33
2018-11-02T12:28:24.325Z,37.47
2018-11-02T12:30:54.231Z,43.27
2018-11-02T12:33:24.167Z,35.67
2018-11-02T12:35:53.683Z,36.93
2018-11-02T12:38:23.685Z,40.30
2018-11-02T12:40:53.268Z,35.27
2018-11-02T12:43:22.995Z,38.87
2018-11-02T12:45:52.751Z,37.63
2018-11-02T12:48:22.772Z,33.83
2018-11-02T12:50:52.649Z,36.80
2018-11-02T12:53:22.233Z,35.20
2018-11-02T12:55:51.798Z,31.90
2018-11-02T12:58:21.506Z,36.77
2018-11-02T13:00:51.513Z,35.00
2018-11-02T13:03:21.376Z,31.60
2018-11-02T13:05:51.235Z,34.20
2018-11-02T13:08:21.310Z,32.30
2018-11-02T13:10:51.302Z,30.40
2018-11-02T13:13:21.043Z,31.30
2018-11-02T13:15:51.101Z,31.77
2018-11-02T13:18:21.402Z,32.53
2018-11-02T13:20:51.422Z,29.13
2018-11-02T13:23:21.777Z,30.00
2018-11-02T13:25:51.714Z,31.43
2018-11-02T13:28:21.531Z,28.97
2018-11-02T13:30:52.088Z,31.40
2018-11-02T13:33:21.945Z,29.87
2018-11-02T13:35:51.808Z,27.93
2018-11-02T13:38:21.930Z,29.43
2018-11-02T13:40:51.703Z,30.23
2018-11-02T13:43:21.418Z,28.23
2018-11-02T13:45:51.316Z,31.03
2018-11-02T13:48:21.116Z,29.53
2018-11-02T13:50:51.560Z,27.77
2018-11-02T13:53:21.213Z,29.77
2018-11-02T13:55:51.129Z,28.03
2018-11-02T13:58:21.015Z,27.10
2018-11-02T14:00:50.632Z,31.53
2018-11-02T14:03:20.396Z,27.57
2018-11-02T14:05:50.162Z,27.93
2018-11-02T14:08:19.809Z,33.13
2018-11-02T14:10:49.679Z,29.50
2018-11-02T14:13:19.944Z,28.67
2018-11-02T14:15:49.949Z,31.00
2018-11-02T14:18:19.800Z,29.17
2018-11-02T14:20:49.910Z,27.67
2018-11-02T14:23:19.502Z,28.17
2018-11-02T14:25:49.025Z,29.27
2018-11-02T14:28:18.808Z,29.57
2018-11-02T14:30:48.283Z,28.77
2018-11-02T14:33:17.973Z,31.30
2018-11-02T14:35:47.582Z,30.40
2018-11-02T14:38:17.240Z,33.67
2018-11-02T14:40:47.014Z,30.50
2018-11-02T14:43:17.022Z,28.70
2018-11-02T14:45:46.949Z,27.10
2018-11-02T14:48:16.787Z,30.23
2018-11-02T14:50:46.471Z,27.70
2018-11-02T14:53:16.389Z,28.70
2018-11-02T14:55:45.897Z,27.90
2018-11-02T14:58:15.664Z,26.70
2018-11-02T15:00:45.759Z,26.90
2018-11-02T15:03:15.457Z,28.53
2018-11-02T15:05:44.966Z,29.23
2018-11-02T15:08:14.697Z,24.20
2018-11-02T15:10:44.585Z,26.13
2018-11-02T15:13:14.679Z,24.03
2018-11-02T15:15:44.401Z,25.83
2018-11-02T15:18:14.221Z,22.53
2018-11-02T15:20:43.959Z,24.50
2018-11-02T15:23:13.550Z,24.73
2018-11-02T15:25:43.726Z,20.67
2018-11-02T15:28:13.354Z,24.73
2018-11-02T15:30:43.269Z,23.10
2018-11-02T15:33:12.789Z,25.40
2018-11-02T15:35:42.803Z,27.90
2018-11-02T15:38:12.422Z,22.17
2018-11-02T15:40:42.322Z,25.50
2018-11-02T15:43:12.118Z,21.70
2018-11-02T15:45:41.997Z,23.07
2018-11-02T15:48:12.042Z,23.53
2018-11-02T15:50:41.674Z,24.57
2018-11-02T15:53:11.228Z,23.87
2018-11-02T15:55:40.904Z,24.63
2018-11-02T15:58:10.678Z,22.37
2018-11-02T16:00:40.425Z,20.33
2018-11-02T16:03:10.888Z,21.10
2018-11-02T16:05:40.766Z,22.20
2018-11-02T16:08:10.713Z,21.50
2018-11-02T16:10:40.445Z,23.30
2018-11-02T16:13:10.338Z,20.47
2018-11-02T16:15:45.278Z,23.53
2018-11-02T16:18:15.153Z,24.87
2018-11-02T16:20:44.915Z,21.77
2018-11-02T16:23:14.629Z,21.17
2018-11-02T16:25:44.490Z,22.57
2018-11-02T16:28:15.135Z,24.07
2018-11-02T16:30:44.990Z,21.90
2018-11-02T16:33:14.719Z,18.40
2018-11-02T16:35:44.504Z,22.00
2018-11-02T16:38:14.317Z,22.60
2018-11-02T16:40:44.609Z,20.67
2018-11-02T16:43:14.152Z,19.43
2018-11-02T16:45:43.817Z,20.03
2018-11-02T16:48:13.752Z,21.97
2018-11-02T16:50:43.998Z,19.90
2018-11-02T16:53:13.846Z,19.77
2018-11-02T16:55:43.749Z,20.67
2018-11-02T16:58:13.449Z,19.97
2018-11-02T17:00:43.034Z,18.87
2018-11-02T17:03:13.211Z,22.20
2018-11-02T17:05:43.125Z,19.53
2018-11-02T17:08:12.992Z,20.43
2018-11-02T17:10:43.152Z,18.93
2018-11-02T17:13:13.054Z,18.53
2018-11-02T17:15:42.697Z,17.50
2018-11-02T17:18:12.432Z,19.47
2018-11-02T17:20:42.367Z,21.53
2018-11-02T17:23:12.201Z,19.43
2018-11-02T17:25:41.830Z,21.50
2018-11-02T17:28:11.445Z,18.80
2018-11-02T17:30:40.998Z,20.90
2018-11-02T17:33:10.546Z,17.30
2018-11-02T17:35:41.106Z,18.37
2018-11-02T17:38:11.589Z,17.10
2018-11-02T17:40:41.451Z,19.77
2018-11-02T17:43:11.210Z,18.43
2018-11-02T17:45:41.291Z,18.33
2018-11-02T17:48:11.147Z,17.70
2018-11-02T17:50:40.897Z,18.47
2018-11-02T17:53:10.956Z,20.50
2018-11-02T17:55:40.577Z,19.63
2018-11-02T17:58:10.425Z,17.97
2018-11-02T18:00:39.952Z,18.13
2018-11-02T18:03:09.618Z,17.30
2018-11-02T18:05:39.454Z,17.00
2018-11-02T18:08:09.205Z,20.33
2018-11-02T18:10:39.157Z,20.07
2018-11-02T18:13:08.925Z,18.70
2018-11-02T18:15:38.477Z,17.07
2018-11-02T18:18:08.309Z,16.67
2018-11-02T18:20:38.121Z,17.47
2018-11-02T18:23:07.965Z,16.47
2018-11-02T18:25:37.909Z,17.23
2018-11-02T18:28:07.869Z,18.50
2018-11-02T18:30:37.537Z,17.37
2018-11-02T18:33:07.214Z,17.70
2018-11-02T18:35:37.179Z,17.93
2018-11-02T18:38:06.992Z,18.10
2018-11-02T18:40:36.895Z,18.37
2018-11-02T18:43:06.488Z,18.27
2018-11-02T18:45:35.974Z,17.53
2018-11-02T18:48:05.851Z,18.93
2018-11-02T18:50:35.509Z,16.07
2018-11-02T18:53:05.495Z,17.40
2018-11-02T18:55:35.132Z,17.40
2018-11-02T18:58:04.697Z,16.00
2018-11-02T19:00:34.418Z,17.50
2018-11-02T19:03:04.341Z,17.93
2018-11-02T19:05:34.068Z,18.80
2018-11-02T19:08:03.956Z,17.20
2018-11-02T19:10:34.241Z,17.33
2018-11-02T19:13:03.974Z,14.20
2018-11-02T19:15:33.843Z,17.27
2018-11-02T19:18:03.453Z,16.70
2018-11-02T19:20:33.259Z,13.80
2018-11-02T19:23:02.994Z,15.53
2018-11-02T19:25:32.942Z,13.80
2018-11-02T19:28:02.498Z,13.10
2018-11-02T19:30:31.975Z,12.93
2018-11-02T19:33:01.833Z,13.80
2018-11-02T19:35:31.600Z,13.57
2018-11-02T19:38:01.346Z,12.53
2018-11-02T19:40:30.860Z,14.27
2018-11-02T19:43:00.317Z,12.30
2018-11-02T19:45:29.980Z,12.27
2018-11-02T19:48:02.219Z,14.30
2018-11-02T19:50:31.990Z,10.77
2018-11-02T19:53:01.989Z,10.73
2018-11-02T19:55:31.638Z,10.27
2018-11-02T19:58:01.451Z,10.40
2018-11-02T20:00:31.369Z,10.83
2018-11-02T20:03:01.226Z,12.70
2018-11-02T20:05:30.922Z,9.83
2018-11-02T20:08:00.852Z,10.37
2018-11-02T20:10:30.791Z,10.00
2018-11-02T20:13:00.577Z,11.10
2018-11-02T20:15:30.267Z,11.47
2018-11-02T20:18:00.860Z,11.77
2018-11-02T20:20:30.454Z,9.13
2018-11-02T20:23:00.306Z,9.20
2018-11-02T20:25:30.357Z,9.63
2018-11-02T20:28:00.186Z,9.73
2018-11-02T20:30:30.354Z,9.87
2018-11-02T20:33:00.316Z,9.57
2018-11-02T20:35:29.813Z,9.77
2018-11-02T20:37:59.496Z,9.20
2018-11-02T20:40:29.019Z,10.03
2018-11-02T20:42:59.311Z,9.90
2018-11-02T20:45:28.944Z,9.03
2018-11-02T20:47:59.134Z,9.77
2018-11-02T20:50:29.148Z,9.50
2018-11-02T20:52:59.323Z,9.47
2018-11-02T20:55:29.381Z,9.47
2018-11-02T20:57:59.325Z,10.00
2018-11-02T21:00:28.965Z,8.60
2018-11-02T21:02:58.638Z,9.00
2018-11-02T21:05:28.595Z,8.90
2018-11-02T21:07:58.347Z,9.83
2018-11-02T21:10:28.153Z,9.03
2018-11-02T21:12:57.970Z,8.90
2018-11-02T21:15:27.832Z,9.30
2018-11-02T21:17:57.576Z,9.00
2018-11-02T21:20:27.519Z,9.27
2018-11-02T21:22:57.309Z,9.70
2018-11-02T21:25:27.014Z,11.03
2018-11-02T21:27:56.715Z,9.60
2018-11-02T21:30:26.935Z,9.67
2018-11-02T21:32:56.893Z,11.63
2018-11-02T21:35:26.659Z,9.67
2018-11-02T21:37:56.596Z,9.27
2018-11-02T21:40:27.388Z,8.90
2018-11-02T21:42:57.327Z,9.53
2018-11-02T21:45:27.141Z,8.87
2018-11-02T21:47:56.738Z,9.63
2018-11-02T21:50:26.492Z,9.70
2018-11-02T21:52:56.230Z,9.50
2018-11-02T21:55:25.841Z,9.33
2018-11-02T21:57:55.608Z,8.83
2018-11-02T22:00:25.558Z,9.33
2018-11-02T22:02:55.335Z,8.97
2018-11-02T22:05:25.084Z,11.63
2018-11-02T22:07:55.245Z,8.87
2018-11-02T22:10:25.037Z,9.80
2018-11-02T22:12:55.324Z,8.50
2018-11-02T22:15:25.259Z,9.47
2018-11-02T22:17:54.894Z,9.17
2018-11-02T22:20:24.458Z,9.37
2018-11-02T22:22:54.012Z,9.20
2018-11-02T22:25:24.086Z,9.40
2018-11-02T22:27:54.007Z,9.37
2018-11-02T22:30:23.843Z,8.50
2018-11-02T22:32:53.458Z,9.30
2018-11-02T22:35:23.503Z,10.23
2018-11-02T22:37:53.166Z,8.83
2018-11-02T22:40:23.202Z,10.07
2018-11-02T22:42:53.149Z,8.97
2018-11-02T22:45:22.714Z,8.87
2018-11-02T22:47:57.506Z,9.03
2018-11-02T22:50:27.590Z,10.37
2018-11-02T22:52:57.351Z,11.43
2018-11-02T22:55:27.076Z,9.80
2018-11-02T22:57:57.275Z,10.57
2018-11-02T23:00:27.138Z,9.30
2018-11-02T23:02:56.733Z,9.00
2018-11-02T23:05:26.347Z,9.47
2018-11-02T23:07:56.094Z,9.53
2018-11-02T23:10:25.936Z,8.93
2018-11-02T23:12:55.705Z,10.00
2018-11-02T23:15:25.437Z,9.07
2018-11-02T23:17:55.110Z,9.27
2018-11-02T23:20:24.877Z,10.53
2018-11-02T23:22:54.736Z,10.07
2018-11-02T23:25:24.539Z,9.23
2018-11-02T23:27:54.438Z,8.97
2018-11-02T23:30:24.334Z,8.97
2018-11-02T23:32:54.626Z,9.57
2018-11-02T23:35:24.321Z,9.70
2018-11-02T23:37:54.062Z,9.07
2018-11-02T23:40:23.605Z,9.50
2018-11-02T23:42:53.457Z,8.83
2018-11-02T23:45:23.081Z,9.77
2018-11-02T23:47:57.311Z,9.17
2018-11-02T23:50:27.489Z,9.03
2018-11-02T23:52:57.278Z,9.23
2018-11-02T23:55:26.950Z,8.43
2018-11-02T23:57:56.806Z,8.73
